sensor_id;sensor_type;location;lat;lon;timestamp;temperature;humidity
35111;DHT22;21290;50.158;8.658;2022-11-30T00:00:18;7.20;99.90
35111;DHT22;21290;50.158;8.658;2022-11-30T00:02:45;7.20;99.90
35111;DHT22;21290;50.158;8.658;2022-11-30T00:05:12;7.20;99.90
35111;DHT22;21290;50.158;8.658;2022-11-30T00:07:39;7.20;99.90
35111;DHT22;21290;50.158;8.658;2022-11-30T00:10:05;7.20;99.90
35111;DHT22;21290;50.158;8.658;2022-11-30T00:12:32;7.20;99.90
35111;DHT22;21290;50.158;8.658;2022-11-30T00:14:59;7.20;99.90
35111;DHT22;21290;50.158;8.658;2022-11-30T00:17:26;7.20;99.90
35111;DHT22;21290;50.158;8.658;2022-11-30T00:19:52;7.20;99.90
35111;DHT22;21290;50.158;8.658;2022-11-30T00:22:19;7.30;99.90
35111;DHT22;21290;50.158;8.658;2022-11-30T00:24:45;7.20;99.90
35111;DHT22;21290;50.158;8.658;2022-11-30T00:27:12;7.20;99.90
35111;DHT22;21290;50.158;8.658;2022-11-30T00:29:39;7.20;99.90
35111;DHT22;21290;50.158;8.658;2022-11-30T00:32:06;7.20;99.90
35111;DHT22;21290;50.158;8.658;2022-11-30T00:34:32;7.30;99.90
35111;DHT22;21290;50.158;8.658;2022-11-30T00:36:59;7.30;99.90
35111;DHT22;21290;50.158;8.658;2022-11-30T00:39:25;7.30;99.90
35111;DHT22;21290;50.158;8.658;2022-11-30T00:41:59;7.30;99.90
35111;DHT22;21290;50.158;8.658;2022-11-30T00:44:25;7.30;99.90
35111;DHT22;21290;50.158;8.658;2022-11-30T00:46:52;7.30;99.90
35111;DHT22;21290;50.158;8.658;2022-11-30T00:49:19;7.30;99.90
35111;DHT22;21290;50.158;8.658;2022-11-30T00:51:45;7.30;99.90
35111;DHT22;21290;50.158;8.658;2022-11-30T00:54:12;7.30;99.90
35111;DHT22;21290;50.158;8.658;2022-11-30T00:56:38;7.30;99.90
35111;DHT22;21290;50.158;8.658;2022-11-30T00:59:05;7.30;99.90
35111;DHT22;21290;50.158;8.658;2022-11-30T01:01:31;7.30;99.90
35111;DHT22;21290;50.158;8.658;2022-11-30T01:03:58;7.30;99.90
35111;DHT22;21290;50.158;8.658;2022-11-30T01:06:24;7.30;99.90
35111;DHT22;21290;50.158;8.658;2022-11-30T01:08:51;7.30;99.90
35111;DHT22;21290;50.158;8.658;2022-11-30T01:11:27;7.30;99.90
35111;DHT22;21290;50.158;8.658;2022-11-30T01:13:54;7.30;99.90
35111;DHT22;21290;50.158;8.658;2022-11-30T01:16:26;7.30;99.90
35111;DHT22;21290;50.158;8.658;2022-11-30T01:18:53;7.20;99.90
35111;DHT22;21290;50.158;8.658;2022-11-30T01:21:21;7.20;99.90
35111;DHT22;21290;50.158;8.658;2022-11-30T01:23:48;7.20;99.90
35111;DHT22;21290;50.158;8.658;2022-11-30T01:26:15;7.20;99.90
35111;DHT22;21290;50.158;8.658;2022-11-30T01:28:41;7.30;99.90
35111;DHT22;21290;50.158;8.658;2022-11-30T01:31:11;7.20;99.90
35111;DHT22;21290;50.158;8.658;2022-11-30T01:33:38;7.30;99.90
35111;DHT22;21290;50.158;8.658;2022-11-30T01:36:06;7.30;99.90
35111;DHT22;21290;50.158;8.658;2022-11-30T01:38:33;7.30;99.90
35111;DHT22;21290;50.158;8.658;2022-11-30T01:41:00;7.30;99.90
35111;DHT22;21290;50.158;8.658;2022-11-30T01:43:40;7.30;99.90
35111;DHT22;21290;50.158;8.658;2022-11-30T01:46:25;7.30;99.90
35111;DHT22;21290;50.158;8.658;2022-11-30T01:48:54;7.30;99.90
35111;DHT22;21290;50.158;8.658;2022-11-30T01:51:21;7.30;99.90
35111;DHT22;21290;50.158;8.658;2022-11-30T01:53:48;7.30;99.90
35111;DHT22;21290;50.158;8.658;2022-11-30T01:56:14;7.30;99.90
35111;DHT22;21290;50.158;8.658;2022-11-30T01:58:42;7.30;99.90
35111;DHT22;21290;50.158;8.658;2022-11-30T02:01:09;7.30;99.90
35111;DHT22;21290;50.158;8.658;2022-11-30T02:06:06;7.30;99.90
35111;DHT22;21290;50.158;8.658;2022-11-30T02:08:33;7.30;99.90
35111;DHT22;21290;50.158;8.658;2022-11-30T02:11:02;7.30;99.90
35111;DHT22;21290;50.158;8.658;2022-11-30T02:21:13;7.30;99.90
35111;DHT22;21290;50.158;8.658;2022-11-30T02:26:24;7.30;99.90
35111;DHT22;21290;50.158;8.658;2022-11-30T02:28:59;7.30;99.90
35111;DHT22;21290;50.158;8.658;2022-11-30T02:31:28;7.30;99.90
35111;DHT22;21290;50.158;8.658;2022-11-30T02:33:56;7.30;99.90
35111;DHT22;21290;50.158;8.658;2022-11-30T02:36:24;7.30;99.90
35111;DHT22;21290;50.158;8.658;2022-11-30T02:38:52;7.30;99.90
35111;DHT22;21290;50.158;8.658;2022-11-30T02:41:19;7.30;99.90
35111;DHT22;21290;50.158;8.658;2022-11-30T02:43:45;7.20;99.90
35111;DHT22;21290;50.158;8.658;2022-11-30T02:46:18;7.20;99.90
35111;DHT22;21290;50.158;8.658;2022-11-30T02:49:00;7.20;99.90
35111;DHT22;21290;50.158;8.658;2022-11-30T02:51:29;7.20;99.90
35111;DHT22;21290;50.158;8.658;2022-11-30T02:53:57;7.20;99.90
35111;DHT22;21290;50.158;8.658;2022-11-30T02:56:24;7.20;99.90
35111;DHT22;21290;50.158;8.658;2022-11-30T02:58:51;7.20;99.90
35111;DHT22;21290;50.158;8.658;2022-11-30T03:01:17;7.30;99.90
35111;DHT22;21290;50.158;8.658;2022-11-30T03:03:44;7.30;99.90
35111;DHT22;21290;50.158;8.658;2022-11-30T03:06:11;7.30;99.90
35111;DHT22;21290;50.158;8.658;2022-11-30T03:08:37;7.20;99.90
35111;DHT22;21290;50.158;8.658;2022-11-30T03:11:04;7.20;99.90
35111;DHT22;21290;50.158;8.658;2022-11-30T03:13:31;7.20;99.90
35111;DHT22;21290;50.158;8.658;2022-11-30T03:15:57;7.20;99.90
35111;DHT22;21290;50.158;8.658;2022-11-30T03:18:24;7.20;99.90
35111;DHT22;21290;50.158;8.658;2022-11-30T03:20:50;7.20;99.90
35111;DHT22;21290;50.158;8.658;2022-11-30T03:23:17;7.20;99.90
35111;DHT22;21290;50.158;8.658;2022-11-30T03:25:44;7.20;99.90
35111;DHT22;21290;50.158;8.658;2022-11-30T03:28:10;7.20;99.90
35111;DHT22;21290;50.158;8.658;2022-11-30T03:30:37;7.20;99.90
35111;DHT22;21290;50.158;8.658;2022-11-30T03:33:03;7.30;99.90
35111;DHT22;21290;50.158;8.658;2022-11-30T03:35:30;7.20;99.90
35111;DHT22;21290;50.158;8.658;2022-11-30T03:37:57;7.20;99.90
35111;DHT22;21290;50.158;8.658;2022-11-30T03:40:23;7.20;99.90
35111;DHT22;21290;50.158;8.658;2022-11-30T03:42:50;7.20;99.90
35111;DHT22;21290;50.158;8.658;2022-11-30T03:45:16;7.30;99.90
35111;DHT22;21290;50.158;8.658;2022-11-30T03:47:43;7.20;99.90
35111;DHT22;21290;50.158;8.658;2022-11-30T03:50:10;7.20;99.90
35111;DHT22;21290;50.158;8.658;2022-11-30T03:52:36;7.20;99.90
35111;DHT22;21290;50.158;8.658;2022-11-30T03:55:03;7.20;99.90
35111;DHT22;21290;50.158;8.658;2022-11-30T03:57:29;7.20;99.90
35111;DHT22;21290;50.158;8.658;2022-11-30T03:59:56;7.20;99.90
35111;DHT22;21290;50.158;8.658;2022-11-30T04:02:22;7.30;99.90
35111;DHT22;21290;50.158;8.658;2022-11-30T04:04:49;7.20;99.90
35111;DHT22;21290;50.158;8.658;2022-11-30T04:07:16;7.30;99.90
35111;DHT22;21290;50.158;8.658;2022-11-30T04:09:42;7.20;99.90
35111;DHT22;21290;50.158;8.658;2022-11-30T04:12:09;7.20;99.90
35111;DHT22;21290;50.158;8.658;2022-11-30T04:14:35;7.30;99.90
35111;DHT22;21290;50.158;8.658;2022-11-30T04:17:02;7.20;99.90
35111;DHT22;21290;50.158;8.658;2022-11-30T04:19:28;7.30;99.90
35111;DHT22;21290;50.158;8.658;2022-11-30T04:21:55;7.30;99.90
35111;DHT22;21290;50.158;8.658;2022-11-30T04:24:21;7.30;99.90
35111;DHT22;21290;50.158;8.658;2022-11-30T04:26:48;7.30;99.90
35111;DHT22;21290;50.158;8.658;2022-11-30T04:29:15;7.20;99.90
35111;DHT22;21290;50.158;8.658;2022-11-30T04:31:41;7.20;99.90
35111;DHT22;21290;50.158;8.658;2022-11-30T04:34:08;7.20;99.90
35111;DHT22;21290;50.158;8.658;2022-11-30T04:36:34;7.20;99.90
35111;DHT22;21290;50.158;8.658;2022-11-30T04:39:01;7.20;99.90
35111;DHT22;21290;50.158;8.658;2022-11-30T04:41:28;7.30;99.90
35111;DHT22;21290;50.158;8.658;2022-11-30T04:43:54;7.30;99.90
35111;DHT22;21290;50.158;8.658;2022-11-30T04:46:21;7.30;99.90
35111;DHT22;21290;50.158;8.658;2022-11-30T04:48:47;7.30;99.90
35111;DHT22;21290;50.158;8.658;2022-11-30T04:51:14;7.30;99.90
35111;DHT22;21290;50.158;8.658;2022-11-30T04:53:41;7.30;99.90
35111;DHT22;21290;50.158;8.658;2022-11-30T04:56:08;7.30;99.90
35111;DHT22;21290;50.158;8.658;2022-11-30T04:58:35;7.30;99.90
35111;DHT22;21290;50.158;8.658;2022-11-30T05:01:01;7.30;99.90
35111;DHT22;21290;50.158;8.658;2022-11-30T05:03:28;7.30;99.90
35111;DHT22;21290;50.158;8.658;2022-11-30T05:05:55;7.30;99.90
35111;DHT22;21290;50.158;8.658;2022-11-30T05:08:21;7.30;99.90
35111;DHT22;21290;50.158;8.658;2022-11-30T05:10:51;7.30;99.90
35111;DHT22;21290;50.158;8.658;2022-11-30T05:13:19;7.40;99.90
35111;DHT22;21290;50.158;8.658;2022-11-30T05:15:46;7.30;99.90
35111;DHT22;21290;50.158;8.658;2022-11-30T05:18:13;7.30;99.90
35111;DHT22;21290;50.158;8.658;2022-11-30T05:20:45;7.40;99.90
35111;DHT22;21290;50.158;8.658;2022-11-30T05:23:12;7.40;99.90
35111;DHT22;21290;50.158;8.658;2022-11-30T05:25:38;7.40;99.90
35111;DHT22;21290;50.158;8.658;2022-11-30T05:28:05;7.40;99.90
35111;DHT22;21290;50.158;8.658;2022-11-30T05:30:31;7.40;99.90
35111;DHT22;21290;50.158;8.658;2022-11-30T05:32:58;7.40;99.90
35111;DHT22;21290;50.158;8.658;2022-11-30T05:35:24;7.40;99.90
35111;DHT22;21290;50.158;8.658;2022-11-30T05:37:51;7.40;99.90
35111;DHT22;21290;50.158;8.658;2022-11-30T05:40:18;7.50;99.90
35111;DHT22;21290;50.158;8.658;2022-11-30T05:42:44;7.50;99.90
35111;DHT22;21290;50.158;8.658;2022-11-30T05:45:11;7.50;99.90
35111;DHT22;21290;50.158;8.658;2022-11-30T05:47:37;7.50;99.90
35111;DHT22;21290;50.158;8.658;2022-11-30T05:50:04;7.50;99.90
35111;DHT22;21290;50.158;8.658;2022-11-30T05:52:31;7.50;99.90
35111;DHT22;21290;50.158;8.658;2022-11-30T05:54:57;7.50;99.90
35111;DHT22;21290;50.158;8.658;2022-11-30T05:57:24;7.50;99.90
35111;DHT22;21290;50.158;8.658;2022-11-30T05:59:51;7.50;99.90
35111;DHT22;21290;50.158;8.658;2022-11-30T06:02:18;7.50;99.90
35111;DHT22;21290;50.158;8.658;2022-11-30T06:04:52;7.50;99.90
35111;DHT22;21290;50.158;8.658;2022-11-30T06:07:18;7.50;99.90
35111;DHT22;21290;50.158;8.658;2022-11-30T06:09:45;7.60;99.90
35111;DHT22;21290;50.158;8.658;2022-11-30T06:12:11;7.60;99.90
35111;DHT22;21290;50.158;8.658;2022-11-30T06:14:38;7.60;99.90
35111;DHT22;21290;50.158;8.658;2022-11-30T06:17:04;7.70;99.90
35111;DHT22;21290;50.158;8.658;2022-11-30T06:19:31;7.70;99.90
35111;DHT22;21290;50.158;8.658;2022-11-30T06:21:58;7.70;99.90
35111;DHT22;21290;50.158;8.658;2022-11-30T06:24:24;7.70;99.90
35111;DHT22;21290;50.158;8.658;2022-11-30T06:26:51;7.70;99.90
35111;DHT22;21290;50.158;8.658;2022-11-30T06:29:17;7.70;99.90
35111;DHT22;21290;50.158;8.658;2022-11-30T06:31:44;7.70;99.90
35111;DHT22;21290;50.158;8.658;2022-11-30T06:34:11;7.70;99.90
35111;DHT22;21290;50.158;8.658;2022-11-30T06:36:37;7.70;99.90
35111;DHT22;21290;50.158;8.658;2022-11-30T06:39:04;7.80;99.90
35111;DHT22;21290;50.158;8.658;2022-11-30T06:41:30;7.70;99.90
35111;DHT22;21290;50.158;8.658;2022-11-30T06:43:57;7.80;99.90
35111;DHT22;21290;50.158;8.658;2022-11-30T06:46:24;7.80;99.90
35111;DHT22;21290;50.158;8.658;2022-11-30T06:48:52;7.80;99.90
35111;DHT22;21290;50.158;8.658;2022-11-30T06:51:19;7.80;99.90
35111;DHT22;21290;50.158;8.658;2022-11-30T06:53:45;7.90;99.90
35111;DHT22;21290;50.158;8.658;2022-11-30T06:56:12;7.90;99.90
35111;DHT22;21290;50.158;8.658;2022-11-30T06:58:39;7.90;99.90
35111;DHT22;21290;50.158;8.658;2022-11-30T07:01:06;7.90;99.90
35111;DHT22;21290;50.158;8.658;2022-11-30T07:03:34;7.90;99.90
35111;DHT22;21290;50.158;8.658;2022-11-30T07:06:04;7.90;99.90
35111;DHT22;21290;50.158;8.658;2022-11-30T07:08:31;8.00;99.90
35111;DHT22;21290;50.158;8.658;2022-11-30T07:10:58;8.00;99.90
35111;DHT22;21290;50.158;8.658;2022-11-30T07:13:24;8.00;99.90
35111;DHT22;21290;50.158;8.658;2022-11-30T07:15:51;8.00;99.90
35111;DHT22;21290;50.158;8.658;2022-11-30T07:18:17;8.00;99.90
35111;DHT22;21290;50.158;8.658;2022-11-30T07:20:44;8.00;99.90
35111;DHT22;21290;50.158;8.658;2022-11-30T07:23:10;8.00;99.90
35111;DHT22;21290;50.158;8.658;2022-11-30T07:25:58;7.90;99.90
35111;DHT22;21290;50.158;8.658;2022-11-30T07:28:44;7.90;99.90
35111;DHT22;21290;50.158;8.658;2022-11-30T07:31:17;7.90;99.90
35111;DHT22;21290;50.158;8.658;2022-11-30T07:33:45;7.90;99.90
35111;DHT22;21290;50.158;8.658;2022-11-30T07:36:12;7.90;99.90
35111;DHT22;21290;50.158;8.658;2022-11-30T07:38:39;7.90;99.90
35111;DHT22;21290;50.158;8.658;2022-11-30T07:41:05;7.90;99.90
35111;DHT22;21290;50.158;8.658;2022-11-30T07:43:32;7.90;99.90
35111;DHT22;21290;50.158;8.658;2022-11-30T07:45:59;7.90;99.90
35111;DHT22;21290;50.158;8.658;2022-11-30T07:48:26;7.90;99.90
35111;DHT22;21290;50.158;8.658;2022-11-30T07:50:53;7.90;99.90
35111;DHT22;21290;50.158;8.658;2022-11-30T07:53:19;7.90;99.90
35111;DHT22;21290;50.158;8.658;2022-11-30T07:55:46;7.90;99.90
35111;DHT22;21290;50.158;8.658;2022-11-30T07:58:15;8.00;99.90
35111;DHT22;21290;50.158;8.658;2022-11-30T08:00:43;7.90;99.90
35111;DHT22;21290;50.158;8.658;2022-11-30T08:03:09;7.90;99.90
35111;DHT22;21290;50.158;8.658;2022-11-30T08:05:38;8.00;99.90
35111;DHT22;21290;50.158;8.658;2022-11-30T08:08:05;7.90;99.90
35111;DHT22;21290;50.158;8.658;2022-11-30T08:10:31;7.90;99.90
35111;DHT22;21290;50.158;8.658;2022-11-30T08:12:58;7.90;99.90
35111;DHT22;21290;50.158;8.658;2022-11-30T08:15:25;7.90;99.90
35111;DHT22;21290;50.158;8.658;2022-11-30T08:17:59;8.00;99.90
35111;DHT22;21290;50.158;8.658;2022-11-30T08:20:30;8.00;99.90
35111;DHT22;21290;50.158;8.658;2022-11-30T08:22:57;8.00;99.90
35111;DHT22;21290;50.158;8.658;2022-11-30T08:25:23;8.00;99.90
35111;DHT22;21290;50.158;8.658;2022-11-30T08:27:50;8.00;99.90
35111;DHT22;21290;50.158;8.658;2022-11-30T08:30:16;8.10;99.90
35111;DHT22;21290;50.158;8.658;2022-11-30T08:32:43;8.20;99.90
35111;DHT22;21290;50.158;8.658;2022-11-30T08:35:10;8.20;99.90
35111;DHT22;21290;50.158;8.658;2022-11-30T08:37:36;8.20;99.90
35111;DHT22;21290;50.158;8.658;2022-11-30T08:40:03;8.20;99.90
35111;DHT22;21290;50.158;8.658;2022-11-30T08:42:31;8.20;99.90
35111;DHT22;21290;50.158;8.658;2022-11-30T08:44:57;8.20;99.90
35111;DHT22;21290;50.158;8.658;2022-11-30T08:47:25;8.30;99.90
35111;DHT22;21290;50.158;8.658;2022-11-30T08:49:51;8.30;99.90
35111;DHT22;21290;50.158;8.658;2022-11-30T08:52:18;8.30;99.90
35111;DHT22;21290;50.158;8.658;2022-11-30T08:54:45;8.30;99.90
35111;DHT22;21290;50.158;8.658;2022-11-30T08:57:14;8.40;99.90
35111;DHT22;21290;50.158;8.658;2022-11-30T08:59:40;8.40;99.90
35111;DHT22;21290;50.158;8.658;2022-11-30T09:02:10;8.50;99.90
35111;DHT22;21290;50.158;8.658;2022-11-30T09:04:38;8.50;99.90
35111;DHT22;21290;50.158;8.658;2022-11-30T09:07:05;8.50;99.90
35111;DHT22;21290;50.158;8.658;2022-11-30T09:09:32;8.60;99.90
35111;DHT22;21290;50.158;8.658;2022-11-30T09:11:58;8.60;99.90
35111;DHT22;21290;50.158;8.658;2022-11-30T09:14:25;8.60;99.90
35111;DHT22;21290;50.158;8.658;2022-11-30T09:16:52;8.60;99.90
35111;DHT22;21290;50.158;8.658;2022-11-30T09:19:18;8.60;99.90
35111;DHT22;21290;50.158;8.658;2022-11-30T09:21:45;8.60;99.90
35111;DHT22;21290;50.158;8.658;2022-11-30T09:24:18;8.60;99.90
35111;DHT22;21290;50.158;8.658;2022-11-30T09:26:44;8.60;99.90
35111;DHT22;21290;50.158;8.658;2022-11-30T09:29:11;8.50;99.90
35111;DHT22;21290;50.158;8.658;2022-11-30T09:31:37;8.60;99.90
35111;DHT22;21290;50.158;8.658;2022-11-30T09:34:04;8.60;99.90
35111;DHT22;21290;50.158;8.658;2022-11-30T09:36:31;8.60;99.90
35111;DHT22;21290;50.158;8.658;2022-11-30T09:38:59;8.70;99.90
35111;DHT22;21290;50.158;8.658;2022-11-30T09:44:01;8.90;99.90
35111;DHT22;21290;50.158;8.658;2022-11-30T09:46:32;9.00;99.90
35111;DHT22;21290;50.158;8.658;2022-11-30T09:49:01;9.10;99.90
35111;DHT22;21290;50.158;8.658;2022-11-30T09:51:31;9.20;99.90
35111;DHT22;21290;50.158;8.658;2022-11-30T09:54:02;9.20;99.90
35111;DHT22;21290;50.158;8.658;2022-11-30T09:56:35;9.20;99.90
35111;DHT22;21290;50.158;8.658;2022-11-30T09:59:06;9.20;99.90
35111;DHT22;21290;50.158;8.658;2022-11-30T10:01:39;9.20;99.90
35111;DHT22;21290;50.158;8.658;2022-11-30T10:04:19;9.30;99.90
35111;DHT22;21290;50.158;8.658;2022-11-30T10:06:49;9.30;99.90
35111;DHT22;21290;50.158;8.658;2022-11-30T10:09:31;9.30;99.90
35111;DHT22;21290;50.158;8.658;2022-11-30T10:12:07;9.30;99.90
35111;DHT22;21290;50.158;8.658;2022-11-30T10:24:55;9.40;99.90
35111;DHT22;21290;50.158;8.658;2022-11-30T10:30:01;9.50;99.90
35111;DHT22;21290;50.158;8.658;2022-11-30T10:32:34;9.60;99.90
35111;DHT22;21290;50.158;8.658;2022-11-30T10:35:12;9.60;99.90
35111;DHT22;21290;50.158;8.658;2022-11-30T10:37:40;9.50;99.90
35111;DHT22;21290;50.158;8.658;2022-11-30T10:40:12;9.50;99.90
35111;DHT22;21290;50.158;8.658;2022-11-30T10:42:57;9.40;99.90
35111;DHT22;21290;50.158;8.658;2022-11-30T10:45:27;9.40;99.90
35111;DHT22;21290;50.158;8.658;2022-11-30T10:50:20;9.30;99.90
35111;DHT22;21290;50.158;8.658;2022-11-30T10:52:52;9.20;99.90
35111;DHT22;21290;50.158;8.658;2022-11-30T10:55:21;9.30;99.90
35111;DHT22;21290;50.158;8.658;2022-11-30T10:57:49;9.20;99.90
35111;DHT22;21290;50.158;8.658;2022-11-30T11:00:19;9.20;99.90
35111;DHT22;21290;50.158;8.658;2022-11-30T11:02:46;9.30;99.90
35111;DHT22;21290;50.158;8.658;2022-11-30T11:05:15;9.30;99.90
35111;DHT22;21290;50.158;8.658;2022-11-30T11:10:15;9.20;99.90
35111;DHT22;21290;50.158;8.658;2022-11-30T11:12:50;9.20;99.90
35111;DHT22;21290;50.158;8.658;2022-11-30T11:15:21;9.20;99.90
35111;DHT22;21290;50.158;8.658;2022-11-30T11:17:48;9.20;99.90
35111;DHT22;21290;50.158;8.658;2022-11-30T11:20:29;9.10;99.90
35111;DHT22;21290;50.158;8.658;2022-11-30T11:22:57;9.10;99.90
35111;DHT22;21290;50.158;8.658;2022-11-30T11:25:27;9.10;99.90
35111;DHT22;21290;50.158;8.658;2022-11-30T11:27:58;9.00;99.90
35111;DHT22;21290;50.158;8.658;2022-11-30T11:30:27;9.00;99.90
35111;DHT22;21290;50.158;8.658;2022-11-30T11:32:58;9.00;99.90
35111;DHT22;21290;50.158;8.658;2022-11-30T11:35:35;9.00;99.90
35111;DHT22;21290;50.158;8.658;2022-11-30T11:38:03;9.00;99.90
35111;DHT22;21290;50.158;8.658;2022-11-30T11:43:29;9.00;99.90
35111;DHT22;21290;50.158;8.658;2022-11-30T11:46:00;8.90;99.90
35111;DHT22;21290;50.158;8.658;2022-11-30T11:48:29;8.90;99.90
35111;DHT22;21290;50.158;8.658;2022-11-30T11:50:58;8.90;99.90
35111;DHT22;21290;50.158;8.658;2022-11-30T11:53:36;8.90;99.90
35111;DHT22;21290;50.158;8.658;2022-11-30T11:58:40;9.00;99.90
35111;DHT22;21290;50.158;8.658;2022-11-30T12:01:10;9.10;99.90
35111;DHT22;21290;50.158;8.658;2022-11-30T12:04:04;9.20;99.90
35111;DHT22;21290;50.158;8.658;2022-11-30T12:06:32;9.50;99.90
35111;DHT22;21290;50.158;8.658;2022-11-30T12:09:02;9.50;99.90
35111;DHT22;21290;50.158;8.658;2022-11-30T12:11:46;9.60;99.90
35111;DHT22;21290;50.158;8.658;2022-11-30T12:14:14;9.60;99.90
35111;DHT22;21290;50.158;8.658;2022-11-30T12:19:21;9.60;99.90
35111;DHT22;21290;50.158;8.658;2022-11-30T12:22:01;9.50;99.90
35111;DHT22;21290;50.158;8.658;2022-11-30T12:27:24;9.50;99.90
35111;DHT22;21290;50.158;8.658;2022-11-30T12:35:23;9.60;99.90
35111;DHT22;21290;50.158;8.658;2022-11-30T12:40:37;9.70;99.90
35111;DHT22;21290;50.158;8.658;2022-11-30T12:43:14;9.70;99.90
35111;DHT22;21290;50.158;8.658;2022-11-30T12:45:43;9.70;99.90
35111;DHT22;21290;50.158;8.658;2022-11-30T12:48:17;9.70;99.90
35111;DHT22;21290;50.158;8.658;2022-11-30T12:53:36;9.70;99.90
35111;DHT22;21290;50.158;8.658;2022-11-30T12:56:17;9.70;99.90
35111;DHT22;21290;50.158;8.658;2022-11-30T13:04:15;9.70;99.90
35111;DHT22;21290;50.158;8.658;2022-11-30T13:06:48;9.60;99.90
35111;DHT22;21290;50.158;8.658;2022-11-30T13:09:19;9.60;99.90
35111;DHT22;21290;50.158;8.658;2022-11-30T13:11:49;9.50;99.90
35111;DHT22;21290;50.158;8.658;2022-11-30T13:14:21;9.30;99.90
35111;DHT22;21290;50.158;8.658;2022-11-30T13:16:49;9.10;99.90
35111;DHT22;21290;50.158;8.658;2022-11-30T13:19:41;9.10;99.90
35111;DHT22;21290;50.158;8.658;2022-11-30T13:22:23;9.00;99.90
35111;DHT22;21290;50.158;8.658;2022-11-30T13:25:07;9.00;99.90
35111;DHT22;21290;50.158;8.658;2022-11-30T13:27:38;8.90;99.90
35111;DHT22;21290;50.158;8.658;2022-11-30T13:30:18;9.00;99.90
35111;DHT22;21290;50.158;8.658;2022-11-30T13:32:46;8.90;99.90
35111;DHT22;21290;50.158;8.658;2022-11-30T13:38:04;8.90;99.90
35111;DHT22;21290;50.158;8.658;2022-11-30T13:40:59;8.90;99.90
35111;DHT22;21290;50.158;8.658;2022-11-30T13:43:30;8.80;99.90
35111;DHT22;21290;50.158;8.658;2022-11-30T13:46:12;8.80;99.90
35111;DHT22;21290;50.158;8.658;2022-11-30T13:48:41;8.70;99.90
35111;DHT22;21290;50.158;8.658;2022-11-30T13:51:08;8.70;99.90
35111;DHT22;21290;50.158;8.658;2022-11-30T13:53:36;8.60;99.90
35111;DHT22;21290;50.158;8.658;2022-11-30T13:58:31;8.50;99.90
35111;DHT22;21290;50.158;8.658;2022-11-30T14:03:30;8.50;99.90
35111;DHT22;21290;50.158;8.658;2022-11-30T14:05:58;8.50;99.90
35111;DHT22;21290;50.158;8.658;2022-11-30T14:10:52;8.60;99.90
35111;DHT22;21290;50.158;8.658;2022-11-30T14:15:54;8.50;99.90
35111;DHT22;21290;50.158;8.658;2022-11-30T14:18:43;8.50;99.90
35111;DHT22;21290;50.158;8.658;2022-11-30T14:21:14;8.40;99.90
35111;DHT22;21290;50.158;8.658;2022-11-30T14:23:51;8.30;99.90
35111;DHT22;21290;50.158;8.658;2022-11-30T14:26:34;8.30;99.90
35111;DHT22;21290;50.158;8.658;2022-11-30T14:31:33;8.30;99.90
35111;DHT22;21290;50.158;8.658;2022-11-30T14:34:09;8.30;99.90
35111;DHT22;21290;50.158;8.658;2022-11-30T14:36:40;8.30;99.90
35111;DHT22;21290;50.158;8.658;2022-11-30T14:39:31;8.30;99.90
35111;DHT22;21290;50.158;8.658;2022-11-30T14:41:59;8.30;99.90
35111;DHT22;21290;50.158;8.658;2022-11-30T14:44:25;8.40;99.90
35111;DHT22;21290;50.158;8.658;2022-11-30T14:46:52;8.40;99.90
35111;DHT22;21290;50.158;8.658;2022-11-30T14:49:22;8.40;99.90
35111;DHT22;21290;50.158;8.658;2022-11-30T14:51:59;8.50;99.90
35111;DHT22;21290;50.158;8.658;2022-11-30T14:54:41;8.50;99.90
35111;DHT22;21290;50.158;8.658;2022-11-30T14:57:19;8.50;99.90
35111;DHT22;21290;50.158;8.658;2022-11-30T14:59:49;8.50;99.90
35111;DHT22;21290;50.158;8.658;2022-11-30T15:02:25;8.40;99.90
35111;DHT22;21290;50.158;8.658;2022-11-30T15:04:53;8.40;99.90
35111;DHT22;21290;50.158;8.658;2022-11-30T15:07:21;8.40;99.90
35111;DHT22;21290;50.158;8.658;2022-11-30T15:09:49;8.40;99.90
35111;DHT22;21290;50.158;8.658;2022-11-30T15:12:17;8.40;99.90
35111;DHT22;21290;50.158;8.658;2022-11-30T15:17:29;8.40;99.90
35111;DHT22;21290;50.158;8.658;2022-11-30T15:19:56;8.40;99.90
35111;DHT22;21290;50.158;8.658;2022-11-30T15:22:23;8.50;99.90
35111;DHT22;21290;50.158;8.658;2022-11-30T15:24:49;8.50;99.90
35111;DHT22;21290;50.158;8.658;2022-11-30T15:27:20;8.50;99.90
35111;DHT22;21290;50.158;8.658;2022-11-30T15:29:51;8.50;99.90
35111;DHT22;21290;50.158;8.658;2022-11-30T15:32:21;8.50;99.90
35111;DHT22;21290;50.158;8.658;2022-11-30T15:34:52;8.50;99.90
35111;DHT22;21290;50.158;8.658;2022-11-30T15:37:29;8.50;99.90
35111;DHT22;21290;50.158;8.658;2022-11-30T15:39:57;8.50;99.90
35111;DHT22;21290;50.158;8.658;2022-11-30T15:42:27;8.50;99.90
35111;DHT22;21290;50.158;8.658;2022-11-30T15:45:06;8.40;99.90
35111;DHT22;21290;50.158;8.658;2022-11-30T15:47:35;8.40;99.90
35111;DHT22;21290;50.158;8.658;2022-11-30T15:50:15;8.30;99.90
35111;DHT22;21290;50.158;8.658;2022-11-30T15:52:46;8.30;99.90
35111;DHT22;21290;50.158;8.658;2022-11-30T15:55:38;8.20;99.90
35111;DHT22;21290;50.158;8.658;2022-11-30T15:58:05;8.10;99.90
35111;DHT22;21290;50.158;8.658;2022-11-30T16:00:31;8.10;99.90
35111;DHT22;21290;50.158;8.658;2022-11-30T16:03:08;8.00;99.90
35111;DHT22;21290;50.158;8.658;2022-11-30T16:05:35;8.00;99.90
35111;DHT22;21290;50.158;8.658;2022-11-30T16:08:02;7.90;99.90
35111;DHT22;21290;50.158;8.658;2022-11-30T16:10:33;7.90;99.90
35111;DHT22;21290;50.158;8.658;2022-11-30T16:13:00;7.90;99.90
35111;DHT22;21290;50.158;8.658;2022-11-30T16:15:28;7.90;99.90
35111;DHT22;21290;50.158;8.658;2022-11-30T16:17:58;7.90;99.90
35111;DHT22;21290;50.158;8.658;2022-11-30T16:20:25;7.90;99.90
35111;DHT22;21290;50.158;8.658;2022-11-30T16:22:52;7.90;99.90
35111;DHT22;21290;50.158;8.658;2022-11-30T16:25:20;7.90;99.90
35111;DHT22;21290;50.158;8.658;2022-11-30T16:27:47;7.80;99.90
35111;DHT22;21290;50.158;8.658;2022-11-30T16:30:14;7.70;99.90
35111;DHT22;21290;50.158;8.658;2022-11-30T16:32:41;7.70;99.90
35111;DHT22;21290;50.158;8.658;2022-11-30T16:35:12;7.70;99.90
35111;DHT22;21290;50.158;8.658;2022-11-30T16:37:40;7.70;99.90
35111;DHT22;21290;50.158;8.658;2022-11-30T16:40:06;7.70;99.90
35111;DHT22;21290;50.158;8.658;2022-11-30T16:42:33;7.70;99.90
35111;DHT22;21290;50.158;8.658;2022-11-30T16:45:00;7.70;99.90
35111;DHT22;21290;50.158;8.658;2022-11-30T16:47:26;7.70;99.90
35111;DHT22;21290;50.158;8.658;2022-11-30T16:49:53;7.70;99.90
35111;DHT22;21290;50.158;8.658;2022-11-30T16:52:19;7.80;99.90
35111;DHT22;21290;50.158;8.658;2022-11-30T16:54:46;7.70;99.90
35111;DHT22;21290;50.158;8.658;2022-11-30T16:57:12;7.70;99.90
35111;DHT22;21290;50.158;8.658;2022-11-30T16:59:39;7.70;99.90
35111;DHT22;21290;50.158;8.658;2022-11-30T17:02:09;7.70;99.90
35111;DHT22;21290;50.158;8.658;2022-11-30T17:04:40;7.60;99.90
35111;DHT22;21290;50.158;8.658;2022-11-30T17:07:07;7.70;99.90
35111;DHT22;21290;50.158;8.658;2022-11-30T17:09:34;7.60;99.90
35111;DHT22;21290;50.158;8.658;2022-11-30T17:12:01;7.60;99.90
35111;DHT22;21290;50.158;8.658;2022-11-30T17:14:27;7.60;99.90